createdAt,value
2023-07-03T00:17:05.000Z,45.90
2023-07-03T00:27:06.000Z,46.50
2023-07-03T00:37:06.000Z,67.70
2023-07-03T00:47:07.000Z,42.00
2023-07-03T00:57:07.000Z,35.40
2023-07-03T01:07:08.000Z,47.40
2023-07-03T01:17:08.000Z,57.90
2023-07-03T01:27:09.000Z,37.20
2023-07-03T01:47:10.000Z,40.10
2023-07-03T01:57:10.000Z,41.80
2023-07-03T02:07:11.000Z,41.60
2023-07-03T02:17:11.000Z,53.50
2023-07-03T02:27:11.000Z,40.10
2023-07-03T02:37:12.000Z,47.60
2023-07-03T02:47:12.000Z,32.00
2023-07-03T02:57:13.000Z,44.30
2023-07-03T03:17:14.000Z,57.80
2023-07-03T03:27:14.000Z,46.60
2023-07-03T03:37:14.000Z,30.80
2023-07-03T03:47:15.000Z,45.80
2023-07-03T03:57:15.000Z,56.00
2023-07-03T04:07:16.000Z,45.90
2023-07-03T04:17:16.000Z,38.00
2023-07-03T04:27:16.000Z,32.90
2023-07-03T04:47:17.000Z,31.80
2023-07-03T04:57:17.000Z,47.20
2023-07-03T05:07:17.000Z,40.70
2023-07-03T05:17:18.000Z,34.60
2023-07-03T05:27:18.000Z,34.50
2023-07-03T05:37:18.000Z,27.90
2023-07-03T05:47:18.000Z,42.50
2023-07-03T05:57:18.000Z,21.90
2023-07-03T06:17:19.000Z,19.30
2023-07-03T06:27:19.000Z,17.70
2023-07-03T06:37:19.000Z,20.00
2023-07-03T06:47:19.000Z,21.40
2023-07-03T06:57:19.000Z,19.50
2023-07-03T07:07:19.000Z,21.60
2023-07-03T07:07:19.000Z,21.60
2023-07-03T07:17:19.000Z,33.10
2023-07-03T07:27:19.000Z,20.80
2023-07-03T07:47:19.000Z,10.20
2023-07-03T07:57:19.000Z,34.30
2023-07-03T08:07:20.000Z,10.10
2023-07-03T08:17:20.000Z,15.60
2023-07-03T08:27:20.000Z,7.30
2023-07-03T08:37:20.000Z,13.90
2023-07-03T08:47:20.000Z,8.90
2023-07-03T08:57:20.000Z,10.40
2023-07-03T09:17:20.000Z,10.20
2023-07-03T09:27:19.000Z,12.40
2023-07-03T09:37:19.000Z,5.20
2023-07-03T09:47:19.000Z,57.40
2023-07-03T09:57:19.000Z,16.60
2023-07-03T10:07:19.000Z,5.30
2023-07-03T10:17:19.000Z,4.40
2023-07-03T10:42:36.000Z,11.30
2023-07-03T10:42:36.000Z,16.80
2023-07-03T10:52:35.000Z,11.30
2023-07-03T11:02:35.000Z,12.10
2023-07-03T11:12:35.000Z,6.60
2023-07-03T11:22:34.000Z,5.90
2023-07-03T11:32:34.000Z,8.60
2023-07-03T11:42:34.000Z,4.90
2023-07-03T11:52:34.000Z,24.40
2023-07-03T12:12:33.000Z,8.50
2023-07-03T12:22:33.000Z,11.80
2023-07-03T12:32:32.000Z,4.40
2023-07-03T12:42:32.000Z,19.00
2023-07-03T12:52:32.000Z,11.40
2023-07-03T13:02:31.000Z,8.00
2023-07-03T13:12:31.000Z,19.50
2023-07-03T13:22:31.000Z,11.00
2023-07-03T13:42:30.000Z,9.70
2023-07-03T13:52:30.000Z,14.90
2023-07-03T13:52:30.000Z,14.90
2023-07-03T14:02:29.000Z,5.30
2023-07-03T14:12:29.000Z,9.70
2023-07-03T14:22:29.000Z,11.50
2023-07-03T14:22:29.000Z,11.50
2023-07-03T14:32:29.000Z,28.80
2023-07-03T14:42:28.000Z,16.90
2023-07-03T14:52:28.000Z,17.30
2023-07-03T15:12:28.000Z,8.20
2023-07-03T15:22:27.000Z,6.80
2023-07-03T15:32:27.000Z,14.20
2023-07-03T15:42:27.000Z,20.00
2023-07-03T15:52:27.000Z,9.10
2023-07-03T16:02:27.000Z,7.40
2023-07-03T16:12:26.000Z,9.10
2023-07-03T16:22:26.000Z,6.70
2023-07-03T16:42:26.000Z,8.30
2023-07-03T16:52:26.000Z,14.60
2023-07-03T17:02:26.000Z,6.40
2023-07-03T17:12:25.000Z,5.90
2023-07-03T17:22:25.000Z,9.30
2023-07-03T17:32:25.000Z,7.60
2023-07-03T17:42:25.000Z,5.90
2023-07-03T17:52:25.000Z,10.90
2023-07-03T18:12:24.000Z,9.70
2023-07-03T18:22:24.000Z,22.20
2023-07-03T18:32:24.000Z,9.20
2023-07-03T18:42:24.000Z,11.30
2023-07-03T18:52:23.000Z,7.80
2023-07-03T19:02:23.000Z,10.20
2023-07-03T19:12:23.000Z,10.60
2023-07-03T19:22:23.000Z,10.60
2023-07-03T19:42:23.000Z,22.50
2023-07-03T19:52:23.000Z,17.40
2023-07-03T20:02:23.000Z,10.80
2023-07-03T20:12:24.000Z,17.50
2023-07-03T20:22:24.000Z,13.90
2023-07-03T20:32:24.000Z,9.20
2023-07-03T20:42:24.000Z,25.40
2023-07-03T20:52:25.000Z,21.00
2023-07-03T21:12:25.000Z,22.00
2023-07-03T21:22:25.000Z,15.40
2023-07-03T21:32:26.000Z,10.20
2023-07-03T21:42:26.000Z,19.50
2023-07-03T21:52:26.000Z,24.10
2023-07-03T22:02:27.000Z,11.10
2023-07-03T22:12:27.000Z,12.30
2023-07-03T22:22:28.000Z,9.30
2023-07-03T22:42:28.000Z,18.00
2023-07-03T22:52:29.000Z,15.60
2023-07-03T23:02:29.000Z,17.60
2023-07-03T23:12:30.000Z,25.30
2023-07-03T23:22:30.000Z,31.40
2023-07-03T23:32:31.000Z,16.20
2023-07-03T23:42:31.000Z,9.10
2023-07-03T23:52:31.000Z,14.30
